createdAt,value
2023-03-07T00:03:31.544Z,61.19
2023-03-07T00:07:14.730Z,60.68
2023-03-07T00:11:01.853Z,60.81
2023-03-07T00:14:44.616Z,61.09
2023-03-07T00:18:27.351Z,61.35
2023-03-07T00:22:10.162Z,61.26
2023-03-07T00:25:59.697Z,61.13
2023-03-07T00:29:42.485Z,61.39
2023-03-07T00:33:25.205Z,60.95
2023-03-07T00:37:08.221Z,60.95
2023-03-07T00:40:59.515Z,60.71
2023-03-07T00:44:42.218Z,61.18
2023-03-07T00:48:25.025Z,60.99
2023-03-07T00:52:07.865Z,60.88
2023-03-07T00:56:00.269Z,60.83
2023-03-07T00:59:42.965Z,60.77
2023-03-07T01:03:26.230Z,60.96
2023-03-07T01:07:08.863Z,61.02
2023-03-07T01:10:51.707Z,60.68
2023-03-07T01:14:35.853Z,60.78
2023-03-07T01:18:18.535Z,60.89
2023-03-07T01:22:01.357Z,61.12
2023-03-07T01:25:44.708Z,61.09
2023-03-07T01:29:27.457Z,60.85
2023-03-07T01:33:11.525Z,60.86
2023-03-07T01:36:54.278Z,60.61
2023-03-07T01:40:39.373Z,60.48
2023-03-07T01:44:25.096Z,60.06
2023-03-07T01:48:07.795Z,59.85
2023-03-07T01:51:54.441Z,60.02
2023-03-07T01:55:37.996Z,60.00
2023-03-07T01:59:25.994Z,59.90
2023-03-07T02:03:13.570Z,59.99
2023-03-07T02:06:57.713Z,60.18
2023-03-07T02:10:41.590Z,60.09
2023-03-07T02:14:24.864Z,60.03
2023-03-07T02:18:08.892Z,60.16
2023-03-07T02:21:59.057Z,60.28
2023-03-07T02:25:43.824Z,60.42
2023-03-07T02:29:28.424Z,60.38
2023-03-07T02:33:11.670Z,60.48
2023-03-07T02:36:56.054Z,60.43
2023-03-07T02:40:40.042Z,60.43
2023-03-07T02:44:22.890Z,60.47
2023-03-07T02:48:07.508Z,60.19
2023-03-07T02:51:50.207Z,59.99
2023-03-07T02:55:33.772Z,60.01
2023-03-07T02:59:16.465Z,59.99
2023-03-07T03:02:59.137Z,59.52
2023-03-07T03:06:43.186Z,59.34
2023-03-07T03:10:25.920Z,59.67
2023-03-07T03:14:08.686Z,59.27
2023-03-07T03:17:54.369Z,59.29
2023-03-07T03:21:37.076Z,59.61
2023-03-07T03:25:23.150Z,59.48
2023-03-07T03:29:06.612Z,59.57
2023-03-07T03:32:49.402Z,59.44
2023-03-07T03:36:32.431Z,59.53
2023-03-07T03:40:17.793Z,59.37
2023-03-07T03:44:01.785Z,59.21
2023-03-07T03:47:44.484Z,59.32
2023-03-07T03:51:27.172Z,59.34
2023-03-07T03:55:10.620Z,59.11
2023-03-07T03:58:55.224Z,59.08
2023-03-07T04:02:39.566Z,58.41
2023-03-07T04:06:24.592Z,58.65
2023-03-07T04:10:08.212Z,58.60
2023-03-07T04:13:51.132Z,58.96
2023-03-07T04:17:33.815Z,58.82
2023-03-07T04:21:17.883Z,58.47
2023-03-07T04:25:00.499Z,58.54
2023-03-07T04:28:44.953Z,58.55
2023-03-07T04:32:27.731Z,58.13
2023-03-07T04:36:11.151Z,58.07
2023-03-07T04:39:55.177Z,58.01
2023-03-07T04:43:37.879Z,58.06
2023-03-07T04:47:20.585Z,58.37
2023-03-07T04:51:03.318Z,58.06
2023-03-07T04:54:46.026Z,58.12
2023-03-07T04:58:30.925Z,58.47
2023-03-07T05:02:14.258Z,58.80
2023-03-07T05:05:56.970Z,59.00
2023-03-07T05:09:39.669Z,59.41
2023-03-07T05:13:22.425Z,59.92
2023-03-07T05:17:06.591Z,60.29
2023-03-07T05:20:49.919Z,60.63
2023-03-07T05:24:32.616Z,60.78
2023-03-07T05:28:16.883Z,61.04
2023-03-07T05:31:59.843Z,61.67
2023-03-07T05:35:44.081Z,61.30
2023-03-07T05:39:27.698Z,61.65
2023-03-07T05:43:10.372Z,62.03
2023-03-07T05:46:53.020Z,62.53
2023-03-07T05:50:39.036Z,62.44
2023-03-07T05:54:26.116Z,63.27
2023-03-07T05:58:09.022Z,63.31
2023-03-07T06:01:51.691Z,63.46
2023-03-07T06:05:34.344Z,63.27
2023-03-07T06:09:17.045Z,63.41
2023-03-07T06:13:01.324Z,63.80
2023-03-07T06:16:44.309Z,63.43
2023-03-07T06:20:27.005Z,63.97
2023-03-07T06:24:10.274Z,64.27
2023-03-07T06:27:53.053Z,64.21
2023-03-07T06:31:38.367Z,64.18
2023-03-07T06:35:21.475Z,63.78
2023-03-07T06:39:04.524Z,63.64
2023-03-07T06:42:47.211Z,63.75
2023-03-07T06:46:30.304Z,62.79
2023-03-07T06:50:23.760Z,63.86
2023-03-07T06:54:12.752Z,63.23
2023-03-07T06:57:56.532Z,62.85
2023-03-07T07:01:39.305Z,62.58
2023-03-07T07:05:23.360Z,62.49
2023-03-07T07:09:06.149Z,61.94
2023-03-07T07:12:49.438Z,62.25
2023-03-07T07:16:33.739Z,61.84
2023-03-07T07:20:16.668Z,61.47
2023-03-07T07:24:00.723Z,61.33
2023-03-07T07:27:43.415Z,61.11
2023-03-07T07:31:26.204Z,60.46
2023-03-07T07:35:09.846Z,60.32
2023-03-07T07:38:52.627Z,60.17
2023-03-07T07:42:36.676Z,59.46
2023-03-07T07:46:19.360Z,58.86
2023-03-07T07:50:02.023Z,59.27
2023-03-07T07:53:44.822Z,58.27
2023-03-07T07:57:27.574Z,57.96
2023-03-07T08:01:16.094Z,56.97
2023-03-07T08:04:58.931Z,55.58
2023-03-07T08:08:41.767Z,55.28
2023-03-07T08:12:25.970Z,55.46
2023-03-07T08:16:11.124Z,54.77
2023-03-07T08:19:55.269Z,54.35
2023-03-07T08:23:38.037Z,53.62
2023-03-07T08:27:20.738Z,52.71
2023-03-07T08:31:07.906Z,53.15
2023-03-07T08:34:50.600Z,52.54
2023-03-07T08:38:34.851Z,52.14
2023-03-07T08:42:17.573Z,52.01
2023-03-07T08:46:00.776Z,51.09
2023-03-07T08:49:43.555Z,51.47
2023-03-07T08:53:26.208Z,51.06
2023-03-07T08:57:10.687Z,49.66
2023-03-07T09:00:53.385Z,50.10
2023-03-07T09:04:36.128Z,49.83
2023-03-07T09:08:18.873Z,50.50
2023-03-07T09:12:01.549Z,49.84
2023-03-07T09:15:46.064Z,49.06
2023-03-07T09:19:28.743Z,49.30
2023-03-07T09:23:11.784Z,49.93
2023-03-07T09:26:54.468Z,49.21
2023-03-07T09:30:38.197Z,48.92
2023-03-07T09:34:22.380Z,48.64
2023-03-07T09:38:05.358Z,48.58
2023-03-07T09:41:56.842Z,48.75
2023-03-07T09:45:47.218Z,47.76
2023-03-07T09:49:33.250Z,47.21
2023-03-07T09:53:20.656Z,46.63
2023-03-07T09:57:03.842Z,46.72
2023-03-07T10:00:46.934Z,47.33
2023-03-07T10:04:35.257Z,47.62
2023-03-07T10:08:19.763Z,47.20
2023-03-07T10:12:19.184Z,47.39
2023-03-07T10:16:03.331Z,47.21
2023-03-07T10:19:50.869Z,45.47
2023-03-07T10:23:42.317Z,45.03
2023-03-07T10:27:28.391Z,44.90
2023-03-07T10:31:19.494Z,44.00
2023-03-07T10:35:16.944Z,44.80
2023-03-07T10:39:04.823Z,44.88
2023-03-07T10:42:48.574Z,44.93
2023-03-07T10:46:31.813Z,45.15
2023-03-07T10:50:25.468Z,44.29
2023-03-07T10:54:14.846Z,45.16
2023-03-07T10:58:13.520Z,46.05
2023-03-07T11:01:58.917Z,46.20
2023-03-07T11:05:48.595Z,46.46
2023-03-07T11:09:32.617Z,45.86
2023-03-07T11:13:16.899Z,46.17
2023-03-07T11:17:01.155Z,45.80
2023-03-07T11:20:50.406Z,46.60
2023-03-07T11:24:38.474Z,46.14
2023-03-07T11:28:30.930Z,46.11
2023-03-07T11:32:15.283Z,46.57
2023-03-07T11:36:02.314Z,45.58
2023-03-07T11:39:49.367Z,45.52
2023-03-07T11:43:47.815Z,45.34
2023-03-07T11:47:37.538Z,45.89
2023-03-07T11:51:33.233Z,45.41
2023-03-07T11:55:25.911Z,45.16
2023-03-07T11:59:39.688Z,44.46
2023-03-07T12:03:38.675Z,44.93
2023-03-07T12:07:39.850Z,44.61
2023-03-07T12:11:40.535Z,44.81
2023-03-07T12:15:29.426Z,44.73
2023-03-07T12:19:39.994Z,44.26
2023-03-07T12:23:27.818Z,43.92
2023-03-07T12:27:14.245Z,50.46
2023-03-07T12:31:06.766Z,47.75
2023-03-07T12:34:54.146Z,43.12
2023-03-07T12:38:41.531Z,43.67
2023-03-07T12:42:32.218Z,42.71
2023-03-07T12:46:19.013Z,41.95
2023-03-07T12:50:06.204Z,41.55
2023-03-07T12:53:55.097Z,42.30
2023-03-07T12:57:43.614Z,41.30
2023-03-07T13:01:29.326Z,40.80
2023-03-07T13:05:20.169Z,41.51
2023-03-07T13:09:04.749Z,41.72
2023-03-07T13:12:48.077Z,40.77
2023-03-07T13:16:41.963Z,41.11
2023-03-07T13:20:44.832Z,41.00
2023-03-07T13:24:36.753Z,40.56
2023-03-07T13:28:52.655Z,41.10
2023-03-07T13:32:56.975Z,40.44
2023-03-07T13:36:39.950Z,40.80
2023-03-07T13:40:49.448Z,39.86
2023-03-07T13:44:39.215Z,39.81
2023-03-07T13:48:55.490Z,40.09
2023-03-07T13:52:45.209Z,40.01
2023-03-07T13:56:30.754Z,38.68
2023-03-07T14:00:24.524Z,37.95
2023-03-07T14:04:12.467Z,38.61
2023-03-07T14:07:55.209Z,39.28
2023-03-07T14:11:42.318Z,38.10
2023-03-07T14:15:27.491Z,37.38
2023-03-07T14:19:16.333Z,38.78
2023-03-07T14:23:10.554Z,37.74
2023-03-07T14:26:57.759Z,38.01
2023-03-07T14:30:40.721Z,37.00
2023-03-07T14:34:28.406Z,37.72
2023-03-07T14:38:18.722Z,37.87
2023-03-07T14:42:10.402Z,38.64
2023-03-07T14:45:57.362Z,39.04
2023-03-07T14:49:44.823Z,38.90
2023-03-07T14:53:28.268Z,39.55
2023-03-07T14:57:17.252Z,39.16
2023-03-07T15:01:00.599Z,37.21
2023-03-07T15:04:43.324Z,36.87
2023-03-07T15:08:28.251Z,36.36
2023-03-07T15:12:15.881Z,34.11
2023-03-07T15:16:00.654Z,34.46
2023-03-07T15:19:47.949Z,35.47
2023-03-07T15:23:31.451Z,34.29
2023-03-07T15:27:19.909Z,35.07
2023-03-07T15:31:03.350Z,35.50
2023-03-07T15:34:46.080Z,35.74
2023-03-07T15:38:33.386Z,35.87
2023-03-07T15:42:22.328Z,35.77
2023-03-07T15:46:07.205Z,36.39
2023-03-07T15:49:51.729Z,37.16
2023-03-07T15:53:36.323Z,37.13
2023-03-07T15:57:22.033Z,37.75
2023-03-07T16:01:08.479Z,38.02
2023-03-07T16:04:53.526Z,38.89
2023-03-07T16:08:36.264Z,39.26
2023-03-07T16:12:20.963Z,39.61
2023-03-07T16:16:09.159Z,39.96
2023-03-07T16:19:51.830Z,39.62
2023-03-07T16:23:34.995Z,39.72
2023-03-07T16:27:19.950Z,39.90
2023-03-07T16:31:03.142Z,40.54
2023-03-07T16:34:48.745Z,40.97
2023-03-07T16:38:31.459Z,41.08
2023-03-07T16:42:23.484Z,41.82
2023-03-07T16:46:07.880Z,42.27
2023-03-07T16:49:52.078Z,42.46
2023-03-07T16:53:34.756Z,43.12
2023-03-07T16:57:18.196Z,43.73
2023-03-07T17:01:01.247Z,43.50
2023-03-07T17:04:44.496Z,44.60
2023-03-07T17:08:28.635Z,45.15
2023-03-07T17:12:11.519Z,45.58
2023-03-07T17:15:54.399Z,45.52
2023-03-07T17:19:37.134Z,45.68
2023-03-07T17:23:22.285Z,45.70
2023-03-07T17:27:06.674Z,46.01
2023-03-07T17:30:50.024Z,46.41
2023-03-07T17:34:34.165Z,47.10
2023-03-07T17:38:16.881Z,47.20
2023-03-07T17:42:00.017Z,49.37
2023-03-07T17:45:44.108Z,47.17
2023-03-07T17:49:33.438Z,47.23
2023-03-07T17:53:16.126Z,47.38
2023-03-07T17:56:58.817Z,47.88
2023-03-07T18:00:41.557Z,48.16
2023-03-07T18:04:28.399Z,48.51
2023-03-07T18:08:11.392Z,48.53
2023-03-07T18:11:54.429Z,48.86
2023-03-07T18:15:37.065Z,49.25
2023-03-07T18:19:26.148Z,49.95
2023-03-07T18:23:11.204Z,50.17
2023-03-07T18:26:54.308Z,50.84
2023-03-07T18:30:36.982Z,51.39
2023-03-07T18:34:20.159Z,51.36
2023-03-07T18:38:04.170Z,51.35
2023-03-07T18:41:49.513Z,51.69
2023-03-07T18:45:32.169Z,52.19
2023-03-07T18:49:16.032Z,52.19
2023-03-07T18:53:01.270Z,51.39
2023-03-07T18:56:47.840Z,51.80
2023-03-07T19:00:30.613Z,51.98
2023-03-07T19:04:13.318Z,52.58
2023-03-07T19:07:56.016Z,52.50
2023-03-07T19:11:38.714Z,52.93
2023-03-07T19:15:22.762Z,53.09
2023-03-07T19:19:05.681Z,53.14
2023-03-07T19:22:48.379Z,53.00
2023-03-07T19:26:31.141Z,52.98
2023-03-07T19:30:15.065Z,52.91
2023-03-07T19:33:59.614Z,53.05
2023-03-07T19:37:42.353Z,53.07
2023-03-07T19:41:26.803Z,53.05
2023-03-07T19:45:10.167Z,53.43
2023-03-07T19:48:52.876Z,53.15
2023-03-07T19:52:37.080Z,53.41
2023-03-07T19:56:21.472Z,53.58
2023-03-07T20:00:04.733Z,53.57
2023-03-07T20:03:48.305Z,53.30
2023-03-07T20:07:30.991Z,52.96
2023-03-07T20:11:16.627Z,52.90
2023-03-07T20:14:59.284Z,52.76
2023-03-07T20:18:42.052Z,52.80
2023-03-07T20:22:25.839Z,52.68
2023-03-07T20:26:10.200Z,52.33
2023-03-07T20:29:55.457Z,52.75
2023-03-07T20:33:38.799Z,52.54
2023-03-07T20:37:21.505Z,52.49
2023-03-07T20:41:06.755Z,52.04
2023-03-07T20:44:49.443Z,51.91
2023-03-07T20:48:33.529Z,52.18
2023-03-07T20:52:16.429Z,52.02
2023-03-07T20:56:02.466Z,51.41
2023-03-07T20:59:45.145Z,50.95
2023-03-07T21:03:28.241Z,50.85
2023-03-07T21:07:12.485Z,50.61
2023-03-07T21:11:02.496Z,50.85
2023-03-07T21:14:45.196Z,51.42
2023-03-07T21:18:28.589Z,51.65
2023-03-07T21:22:12.697Z,51.87
2023-03-07T21:26:01.277Z,52.61
2023-03-07T21:29:46.437Z,52.97
2023-03-07T21:33:29.420Z,53.09
2023-03-07T21:37:13.533Z,53.02
2023-03-07T21:40:56.811Z,52.99
2023-03-07T21:44:39.624Z,53.14
2023-03-07T21:48:22.652Z,53.71
2023-03-07T21:52:05.404Z,53.49
2023-03-07T21:55:52.717Z,53.67
2023-03-07T21:59:36.421Z,54.04
2023-03-07T22:03:19.856Z,53.90
2023-03-07T22:07:05.304Z,54.06
2023-03-07T22:11:00.077Z,54.10
2023-03-07T22:14:42.768Z,55.08
2023-03-07T22:18:26.023Z,54.22
2023-03-07T22:22:08.787Z,53.84
2023-03-07T22:25:53.917Z,54.07
2023-03-07T22:29:38.330Z,54.24
2023-03-07T22:33:20.994Z,54.73
2023-03-07T22:37:03.791Z,54.59
2023-03-07T22:40:46.455Z,54.86
2023-03-07T22:44:29.364Z,54.81
2023-03-07T22:48:13.404Z,54.63
2023-03-07T22:51:56.117Z,55.11
2023-03-07T22:55:42.549Z,55.46
2023-03-07T22:59:25.251Z,55.61
2023-03-07T23:03:08.058Z,55.81
2023-03-07T23:06:52.070Z,55.91
2023-03-07T23:10:37.945Z,56.40
2023-03-07T23:14:20.614Z,56.37
2023-03-07T23:18:03.843Z,56.13
2023-03-07T23:21:47.739Z,55.60
2023-03-07T23:25:33.810Z,56.04
2023-03-07T23:29:18.042Z,55.73
2023-03-07T23:33:02.823Z,55.50
2023-03-07T23:36:45.885Z,56.02
2023-03-07T23:40:28.741Z,56.03
2023-03-07T23:44:13.131Z,55.85
2023-03-07T23:47:55.977Z,55.88
2023-03-07T23:51:38.741Z,56.14
2023-03-07T23:55:21.504Z,55.67
2023-03-07T23:59:04.188Z,56.06
